sensor_id;sensor_type;location;lat;lon;timestamp;temperature;humidity
14022;DHT22;7086;48.116;11.580;2022-08-21T00:03:00;19.30;99.90
14022;DHT22;7086;48.116;11.580;2022-08-21T00:05:31;19.20;99.90
14022;DHT22;7086;48.116;11.580;2022-08-21T00:08:01;19.20;99.90
14022;DHT22;7086;48.116;11.580;2022-08-21T00:10:29;19.20;99.90
14022;DHT22;7086;48.116;11.580;2022-08-21T00:15:31;19.10;99.90
14022;DHT22;7086;48.116;11.580;2022-08-21T00:17:59;19.10;99.90
14022;DHT22;7086;48.116;11.580;2022-08-21T00:30:24;18.90;99.90
14022;DHT22;7086;48.116;11.580;2022-08-21T00:32:55;18.80;99.90
14022;DHT22;7086;48.116;11.580;2022-08-21T00:35:26;18.80;99.90
14022;DHT22;7086;48.116;11.580;2022-08-21T00:40:26;18.80;99.90
14022;DHT22;7086;48.116;11.580;2022-08-21T00:42:55;18.80;99.90
14022;DHT22;7086;48.116;11.580;2022-08-21T00:47:55;18.70;99.90
14022;DHT22;7086;48.116;11.580;2022-08-21T00:50:26;18.70;99.90
14022;DHT22;7086;48.116;11.580;2022-08-21T00:52:58;18.70;99.90
14022;DHT22;7086;48.116;11.580;2022-08-21T00:55:30;18.60;99.90
14022;DHT22;7086;48.116;11.580;2022-08-21T00:57:59;18.60;99.90
14022;DHT22;7086;48.116;11.580;2022-08-21T01:00:35;18.60;99.90
14022;DHT22;7086;48.116;11.580;2022-08-21T01:03:10;18.60;99.90
14022;DHT22;7086;48.116;11.580;2022-08-21T01:05:41;18.60;99.90
14022;DHT22;7086;48.116;11.580;2022-08-21T01:08:10;18.50;99.90
14022;DHT22;7086;48.116;11.580;2022-08-21T01:10:39;18.50;99.90
14022;DHT22;7086;48.116;11.580;2022-08-21T01:13:09;18.50;99.90
14022;DHT22;7086;48.116;11.580;2022-08-21T01:15:42;18.50;99.90
14022;DHT22;7086;48.116;11.580;2022-08-21T01:18:20;18.40;99.90
14022;DHT22;7086;48.116;11.580;2022-08-21T01:21:03;18.40;99.90
14022;DHT22;7086;48.116;11.580;2022-08-21T01:23:34;18.40;99.90
14022;DHT22;7086;48.116;11.580;2022-08-21T01:26:04;18.40;99.90
14022;DHT22;7086;48.116;11.580;2022-08-21T01:28:36;18.30;99.90
14022;DHT22;7086;48.116;11.580;2022-08-21T01:31:09;18.30;99.90
14022;DHT22;7086;48.116;11.580;2022-08-21T01:36:09;18.30;99.90
14022;DHT22;7086;48.116;11.580;2022-08-21T01:41:05;18.20;99.90
14022;DHT22;7086;48.116;11.580;2022-08-21T01:46:02;18.20;99.90
14022;DHT22;7086;48.116;11.580;2022-08-21T01:55:55;18.10;99.90
14022;DHT22;7086;48.116;11.580;2022-08-21T01:58:23;18.10;99.90
14022;DHT22;7086;48.116;11.580;2022-08-21T02:05:46;18.00;99.90
14022;DHT22;7086;48.116;11.580;2022-08-21T02:10:42;18.00;99.90
14022;DHT22;7086;48.116;11.580;2022-08-21T02:15:40;16.70;99.90
14022;DHT22;7086;48.116;11.580;2022-08-21T02:20:37;17.90;99.90
14022;DHT22;7086;48.116;11.580;2022-08-21T02:23:08;17.90;99.90
14022;DHT22;7086;48.116;11.580;2022-08-21T02:25:38;17.80;99.90
14022;DHT22;7086;48.116;11.580;2022-08-21T02:28:11;17.80;99.90
14022;DHT22;7086;48.116;11.580;2022-08-21T02:30:43;17.80;99.90
14022;DHT22;7086;48.116;11.580;2022-08-21T02:33:13;17.80;99.90
14022;DHT22;7086;48.116;11.580;2022-08-21T02:35:42;17.80;99.90
14022;DHT22;7086;48.116;11.580;2022-08-21T02:38:12;17.80;99.90
14022;DHT22;7086;48.116;11.580;2022-08-21T02:40:44;17.70;99.90
14022;DHT22;7086;48.116;11.580;2022-08-21T02:43:15;17.80;99.90
14022;DHT22;7086;48.116;11.580;2022-08-21T02:45:45;17.80;99.90
14022;DHT22;7086;48.116;11.580;2022-08-21T02:48:16;17.80;99.90
14022;DHT22;7086;48.116;11.580;2022-08-21T02:50:46;17.70;99.90
14022;DHT22;7086;48.116;11.580;2022-08-21T02:53:16;17.70;99.90
14022;DHT22;7086;48.116;11.580;2022-08-21T02:55:45;17.70;99.90
14022;DHT22;7086;48.116;11.580;2022-08-21T02:58:18;17.60;99.90
14022;DHT22;7086;48.116;11.580;2022-08-21T03:05:43;17.60;99.90
14022;DHT22;7086;48.116;11.580;2022-08-21T03:08:13;17.70;99.90
14022;DHT22;7086;48.116;11.580;2022-08-21T03:10:44;17.60;99.90
14022;DHT22;7086;48.116;11.580;2022-08-21T03:13:14;17.60;99.90
14022;DHT22;7086;48.116;11.580;2022-08-21T03:20:43;17.60;99.90
14022;DHT22;7086;48.116;11.580;2022-08-21T03:25:40;17.60;99.90
14022;DHT22;7086;48.116;11.580;2022-08-21T03:28:10;17.60;99.90
14022;DHT22;7086;48.116;11.580;2022-08-21T03:33:10;17.50;99.90
14022;DHT22;7086;48.116;11.580;2022-08-21T03:38:07;17.50;99.90
14022;DHT22;7086;48.116;11.580;2022-08-21T03:40:35;17.50;99.90
14022;DHT22;7086;48.116;11.580;2022-08-21T03:43:02;17.50;99.90
14022;DHT22;7086;48.116;11.580;2022-08-21T03:48:01;17.40;99.90
14022;DHT22;7086;48.116;11.580;2022-08-21T03:50:32;17.40;99.90
14022;DHT22;7086;48.116;11.580;2022-08-21T03:57:58;17.40;99.90
14022;DHT22;7086;48.116;11.580;2022-08-21T04:07:57;17.30;99.90
14022;DHT22;7086;48.116;11.580;2022-08-21T04:10:36;17.30;99.90
14022;DHT22;7086;48.116;11.580;2022-08-21T04:13:09;17.30;99.90
14022;DHT22;7086;48.116;11.580;2022-08-21T04:18:06;17.30;99.90
14022;DHT22;7086;48.116;11.580;2022-08-21T04:23:07;17.20;99.90
14022;DHT22;7086;48.116;11.580;2022-08-21T04:35:30;17.20;99.90
14022;DHT22;7086;48.116;11.580;2022-08-21T04:42:58;17.20;99.90
14022;DHT22;7086;48.116;11.580;2022-08-21T04:45:30;17.20;99.90
14022;DHT22;7086;48.116;11.580;2022-08-21T04:48:02;17.20;99.90
14022;DHT22;7086;48.116;11.580;2022-08-21T04:50:39;17.10;99.90
14022;DHT22;7086;48.116;11.580;2022-08-21T04:53:14;17.20;99.90
14022;DHT22;7086;48.116;11.580;2022-08-21T04:55:44;17.20;99.90
14022;DHT22;7086;48.116;11.580;2022-08-21T04:58:16;17.20;99.90
14022;DHT22;7086;48.116;11.580;2022-08-21T05:00:47;17.20;99.90
14022;DHT22;7086;48.116;11.580;2022-08-21T05:03:47;17.30;99.90
14022;DHT22;7086;48.116;11.580;2022-08-21T05:06:23;17.30;99.90
14022;DHT22;7086;48.116;11.580;2022-08-21T05:11:36;17.40;99.90
14022;DHT22;7086;48.116;11.580;2022-08-21T05:21:33;17.60;99.90
14022;DHT22;7086;48.116;11.580;2022-08-21T05:24:02;17.70;99.90
14022;DHT22;7086;48.116;11.580;2022-08-21T05:26:31;17.70;99.90
14022;DHT22;7086;48.116;11.580;2022-08-21T05:43:48;18.10;99.90
14022;DHT22;7086;48.116;11.580;2022-08-21T05:46:16;18.20;99.90
14022;DHT22;7086;48.116;11.580;2022-08-21T05:48:44;18.20;99.90
14022;DHT22;7086;48.116;11.580;2022-08-21T05:51:13;18.30;99.90
14022;DHT22;7086;48.116;11.580;2022-08-21T05:53:42;18.40;99.90
14022;DHT22;7086;48.116;11.580;2022-08-21T05:56:12;18.50;99.90
14022;DHT22;7086;48.116;11.580;2022-08-21T06:01:09;18.60;99.90
14022;DHT22;7086;48.116;11.580;2022-08-21T06:03:39;18.70;99.90
14022;DHT22;7086;48.116;11.580;2022-08-21T06:06:09;18.70;99.90
14022;DHT22;7086;48.116;11.580;2022-08-21T06:11:06;18.90;99.90
14022;DHT22;7086;48.116;11.580;2022-08-21T06:16:07;19.10;99.90
14022;DHT22;7086;48.116;11.580;2022-08-21T06:18:38;19.20;99.70
14022;DHT22;7086;48.116;11.580;2022-08-21T06:23:35;19.30;99.40
14022;DHT22;7086;48.116;11.580;2022-08-21T06:28:31;19.70;99.90
14022;DHT22;7086;48.116;11.580;2022-08-21T06:52:32;27.80;94.40
14022;DHT22;7086;48.116;11.580;2022-08-21T06:55:15;26.90;91.70
14022;DHT22;7086;48.116;11.580;2022-08-21T07:17:30;30.80;73.00
14022;DHT22;7086;48.116;11.580;2022-08-21T07:20:18;31.00;71.40
14022;DHT22;7086;48.116;11.580;2022-08-21T07:42:12;32.60;60.20
14022;DHT22;7086;48.116;11.580;2022-08-21T07:47:10;31.70;57.40
14022;DHT22;7086;48.116;11.580;2022-08-21T07:52:23;33.40;57.80
14022;DHT22;7086;48.116;11.580;2022-08-21T07:55:07;33.50;54.80
14022;DHT22;7086;48.116;11.580;2022-08-21T07:57:41;33.50;53.90
14022;DHT22;7086;48.116;11.580;2022-08-21T08:00:17;33.60;54.00
14022;DHT22;7086;48.116;11.580;2022-08-21T08:10:52;33.90;52.60
14022;DHT22;7086;48.116;11.580;2022-08-21T08:13:37;33.90;51.80
14022;DHT22;7086;48.116;11.580;2022-08-21T08:24:03;33.80;49.60
14022;DHT22;7086;48.116;11.580;2022-08-21T08:29:23;33.60;50.80
14022;DHT22;7086;48.116;11.580;2022-08-21T08:37:10;33.70;49.20
14022;DHT22;7086;48.116;11.580;2022-08-21T08:42:12;33.70;49.50
14022;DHT22;7086;48.116;11.580;2022-08-21T08:44:48;33.70;48.90
14022;DHT22;7086;48.116;11.580;2022-08-21T08:47:25;33.70;48.80
14022;DHT22;7086;48.116;11.580;2022-08-21T08:50:02;33.70;48.80
14022;DHT22;7086;48.116;11.580;2022-08-21T08:52:41;33.70;49.20
14022;DHT22;7086;48.116;11.580;2022-08-21T08:55:33;33.70;48.60
14022;DHT22;7086;48.116;11.580;2022-08-21T08:58:08;33.40;48.10
14022;DHT22;7086;48.116;11.580;2022-08-21T09:01:06;33.60;48.70
14022;DHT22;7086;48.116;11.580;2022-08-21T09:09:08;33.60;48.00
14022;DHT22;7086;48.116;11.580;2022-08-21T09:12:06;33.70;48.70
14022;DHT22;7086;48.116;11.580;2022-08-21T09:54:51;35.00;45.10
14022;DHT22;7086;48.116;11.580;2022-08-21T09:57:24;34.90;44.50
14022;DHT22;7086;48.116;11.580;2022-08-21T10:00:11;34.50;44.40
14022;DHT22;7086;48.116;11.580;2022-08-21T10:05:19;33.50;44.70
14022;DHT22;7086;48.116;11.580;2022-08-21T10:10:56;32.60;46.50
14022;DHT22;7086;48.116;11.580;2022-08-21T10:16:28;32.10;48.50
14022;DHT22;7086;48.116;11.580;2022-08-21T10:19:15;31.90;48.80
14022;DHT22;7086;48.116;11.580;2022-08-21T10:22:20;32.00;48.90
14022;DHT22;7086;48.116;11.580;2022-08-21T10:25:08;32.00;49.20
14022;DHT22;7086;48.116;11.580;2022-08-21T10:28:12;32.10;49.20
14022;DHT22;7086;48.116;11.580;2022-08-21T10:30:48;32.20;48.40
14022;DHT22;7086;48.116;11.580;2022-08-21T10:33:32;32.30;48.10
14022;DHT22;7086;48.116;11.580;2022-08-21T10:36:31;32.20;48.30
14022;DHT22;7086;48.116;11.580;2022-08-21T10:39:16;32.10;47.90
14022;DHT22;7086;48.116;11.580;2022-08-21T10:42:25;31.70;47.90
14022;DHT22;7086;48.116;11.580;2022-08-21T10:45:12;31.40;48.30
14022;DHT22;7086;48.116;11.580;2022-08-21T10:47:54;31.00;48.60
14022;DHT22;7086;48.116;11.580;2022-08-21T10:50:42;30.60;49.40
14022;DHT22;7086;48.116;11.580;2022-08-21T10:53:47;30.40;50.30
14022;DHT22;7086;48.116;11.580;2022-08-21T10:56:41;30.20;50.80
14022;DHT22;7086;48.116;11.580;2022-08-21T10:59:27;30.20;50.90
14022;DHT22;7086;48.116;11.580;2022-08-21T11:02:20;30.00;50.70
14022;DHT22;7086;48.116;11.580;2022-08-21T11:05:01;29.90;50.60
14022;DHT22;7086;48.116;11.580;2022-08-21T11:07:43;29.90;50.30
14022;DHT22;7086;48.116;11.580;2022-08-21T11:10:20;29.80;49.10
14022;DHT22;7086;48.116;11.580;2022-08-21T11:12:54;29.70;49.30
14022;DHT22;7086;48.116;11.580;2022-08-21T11:15:39;29.70;50.00
14022;DHT22;7086;48.116;11.580;2022-08-21T11:18:26;29.90;50.70
14022;DHT22;7086;48.116;11.580;2022-08-21T11:21:14;30.20;50.40
14022;DHT22;7086;48.116;11.580;2022-08-21T11:24:19;30.30;50.30
14022;DHT22;7086;48.116;11.580;2022-08-21T11:27:05;30.30;49.90
14022;DHT22;7086;48.116;11.580;2022-08-21T11:29:42;30.20;49.70
14022;DHT22;7086;48.116;11.580;2022-08-21T11:32:37;30.00;50.00
14022;DHT22;7086;48.116;11.580;2022-08-21T11:35:43;29.80;50.00
14022;DHT22;7086;48.116;11.580;2022-08-21T11:38:27;29.50;50.10
14022;DHT22;7086;48.116;11.580;2022-08-21T11:41:23;29.30;50.00
14022;DHT22;7086;48.116;11.580;2022-08-21T11:44:06;29.00;50.20
14022;DHT22;7086;48.116;11.580;2022-08-21T11:46:49;28.80;50.40
14022;DHT22;7086;48.116;11.580;2022-08-21T11:49:41;28.60;50.70
14022;DHT22;7086;48.116;11.580;2022-08-21T11:52:22;28.50;51.80
14022;DHT22;7086;48.116;11.580;2022-08-21T11:54:59;23.90;49.80
14022;DHT22;7086;48.116;11.580;2022-08-21T11:57:35;28.40;52.80
14022;DHT22;7086;48.116;11.580;2022-08-21T12:00:24;28.60;52.70
14022;DHT22;7086;48.116;11.580;2022-08-21T12:02:59;28.80;52.60
14022;DHT22;7086;48.116;11.580;2022-08-21T12:05:43;29.00;51.80
14022;DHT22;7086;48.116;11.580;2022-08-21T12:08:30;29.20;50.90
14022;DHT22;7086;48.116;11.580;2022-08-21T12:11:02;29.30;51.00
14022;DHT22;7086;48.116;11.580;2022-08-21T12:13:36;29.30;50.30
14022;DHT22;7086;48.116;11.580;2022-08-21T12:16:29;29.20;49.40
14022;DHT22;7086;48.116;11.580;2022-08-21T12:19:05;29.10;48.70
14022;DHT22;7086;48.116;11.580;2022-08-21T12:21:49;29.00;48.70
14022;DHT22;7086;48.116;11.580;2022-08-21T12:24:35;28.80;47.50
14022;DHT22;7086;48.116;11.580;2022-08-21T12:27:22;28.60;47.10
14022;DHT22;7086;48.116;11.580;2022-08-21T12:29:58;29.00;47.60
14022;DHT22;7086;48.116;11.580;2022-08-21T12:32:44;28.60;47.80
14022;DHT22;7086;48.116;11.580;2022-08-21T12:35:26;28.60;48.00
14022;DHT22;7086;48.116;11.580;2022-08-21T12:38:09;28.80;47.90
14022;DHT22;7086;48.116;11.580;2022-08-21T12:40:48;28.80;47.70
14022;DHT22;7086;48.116;11.580;2022-08-21T12:43:26;29.00;47.90
14022;DHT22;7086;48.116;11.580;2022-08-21T12:48:43;28.90;47.90
14022;DHT22;7086;48.116;11.580;2022-08-21T12:53:52;28.90;48.20
14022;DHT22;7086;48.116;11.580;2022-08-21T12:56:29;28.90;48.30
14022;DHT22;7086;48.116;11.580;2022-08-21T12:59:10;29.00;48.40
14022;DHT22;7086;48.116;11.580;2022-08-21T13:01:53;29.10;47.50
14022;DHT22;7086;48.116;11.580;2022-08-21T13:10:03;29.40;47.60
14022;DHT22;7086;48.116;11.580;2022-08-21T13:15:50;29.80;47.60
14022;DHT22;7086;48.116;11.580;2022-08-21T13:18:53;29.90;47.10
14022;DHT22;7086;48.116;11.580;2022-08-21T13:21:28;29.90;47.00
14022;DHT22;7086;48.116;11.580;2022-08-21T13:24:23;29.80;46.90
14022;DHT22;7086;48.116;11.580;2022-08-21T13:27:21;29.70;46.70
14022;DHT22;7086;48.116;11.580;2022-08-21T13:32:40;29.40;47.30
14022;DHT22;7086;48.116;11.580;2022-08-21T13:35:19;29.10;47.50
14022;DHT22;7086;48.116;11.580;2022-08-21T13:37:49;29.00;48.00
14022;DHT22;7086;48.116;11.580;2022-08-21T13:40:20;28.80;48.10
14022;DHT22;7086;48.116;11.580;2022-08-21T13:45:30;28.50;48.50
14022;DHT22;7086;48.116;11.580;2022-08-21T13:48:00;28.40;48.80
14022;DHT22;7086;48.116;11.580;2022-08-21T13:52:59;28.40;49.20
14022;DHT22;7086;48.116;11.580;2022-08-21T13:55:38;28.40;49.10
14022;DHT22;7086;48.116;11.580;2022-08-21T14:00:45;28.60;49.00
14022;DHT22;7086;48.116;11.580;2022-08-21T14:03:26;28.60;49.00
14022;DHT22;7086;48.116;11.580;2022-08-21T14:08:29;28.80;49.20
14022;DHT22;7086;48.116;11.580;2022-08-21T14:11:03;28.90;48.60
14022;DHT22;7086;48.116;11.580;2022-08-21T14:13:38;29.00;48.60
14022;DHT22;7086;48.116;11.580;2022-08-21T14:16:17;29.00;48.20
14022;DHT22;7086;48.116;11.580;2022-08-21T14:18:52;29.20;48.20
14022;DHT22;7086;48.116;11.580;2022-08-21T14:21:38;29.30;48.00
14022;DHT22;7086;48.116;11.580;2022-08-21T14:24:11;27.80;46.10
14022;DHT22;7086;48.116;11.580;2022-08-21T14:26:56;29.60;47.10
14022;DHT22;7086;48.116;11.580;2022-08-21T14:32:37;29.60;47.00
14022;DHT22;7086;48.116;11.580;2022-08-21T14:40:55;29.30;46.50
14022;DHT22;7086;48.116;11.580;2022-08-21T14:46:24;29.00;46.90
14022;DHT22;7086;48.116;11.580;2022-08-21T14:49:16;28.80;47.10
14022;DHT22;7086;48.116;11.580;2022-08-21T14:54:28;28.50;47.40
14022;DHT22;7086;48.116;11.580;2022-08-21T15:05:24;28.00;47.90
14022;DHT22;7086;48.116;11.580;2022-08-21T15:11:05;28.10;47.80
14022;DHT22;7086;48.116;11.580;2022-08-21T15:13:56;28.00;47.90
14022;DHT22;7086;48.116;11.580;2022-08-21T15:16:29;27.90;48.20
14022;DHT22;7086;48.116;11.580;2022-08-21T15:28:55;27.80;48.20
14022;DHT22;7086;48.116;11.580;2022-08-21T15:31:55;27.70;48.10
14022;DHT22;7086;48.116;11.580;2022-08-21T15:34:49;27.60;48.10
14022;DHT22;7086;48.116;11.580;2022-08-21T15:37:31;27.50;48.10
14022;DHT22;7086;48.116;11.580;2022-08-21T15:42:48;27.20;48.00
14022;DHT22;7086;48.116;11.580;2022-08-21T15:56:02;27.20;48.00
14022;DHT22;7086;48.116;11.580;2022-08-21T16:01:27;27.10;47.50
14022;DHT22;7086;48.116;11.580;2022-08-21T16:24:51;26.90;47.00
14022;DHT22;7086;48.116;11.580;2022-08-21T16:27:33;26.90;47.30
14022;DHT22;7086;48.116;11.580;2022-08-21T16:30:21;26.90;47.30
14022;DHT22;7086;48.116;11.580;2022-08-21T16:32:51;26.80;47.40
14022;DHT22;7086;48.116;11.580;2022-08-21T16:46:16;26.60;47.40
14022;DHT22;7086;48.116;11.580;2022-08-21T16:48:46;26.50;47.60
14022;DHT22;7086;48.116;11.580;2022-08-21T16:58:56;26.40;47.70
14022;DHT22;7086;48.116;11.580;2022-08-21T17:01:34;26.40;47.60
14022;DHT22;7086;48.116;11.580;2022-08-21T17:17:16;26.10;48.60
14022;DHT22;7086;48.116;11.580;2022-08-21T17:19:47;26.10;48.70
14022;DHT22;7086;48.116;11.580;2022-08-21T17:24:57;26.00;48.70
14022;DHT22;7086;48.116;11.580;2022-08-21T17:30:10;25.90;48.90
14022;DHT22;7086;48.116;11.580;2022-08-21T17:32:43;25.80;48.90
14022;DHT22;7086;48.116;11.580;2022-08-21T17:43:08;25.60;49.10
14022;DHT22;7086;48.116;11.580;2022-08-21T17:45:57;24.00;48.30
14022;DHT22;7086;48.116;11.580;2022-08-21T18:57:57;24.10;53.30
14022;DHT22;7086;48.116;11.580;2022-08-21T19:14:02;23.80;54.50
14022;DHT22;7086;48.116;11.580;2022-08-21T19:26:42;23.40;55.40
14022;DHT22;7086;48.116;11.580;2022-08-21T19:29:18;23.30;55.40
14022;DHT22;7086;48.116;11.580;2022-08-21T19:34:23;23.20;56.00
14022;DHT22;7086;48.116;11.580;2022-08-21T19:36:54;23.10;55.90
14022;DHT22;7086;48.116;11.580;2022-08-21T19:41:56;20.90;55.40
14022;DHT22;7086;48.116;11.580;2022-08-21T19:44:27;22.90;56.60
14022;DHT22;7086;48.116;11.580;2022-08-21T19:46:57;22.90;57.00
14022;DHT22;7086;48.116;11.580;2022-08-21T19:49:30;22.90;57.30
14022;DHT22;7086;48.116;11.580;2022-08-21T19:54:30;22.80;57.60
14022;DHT22;7086;48.116;11.580;2022-08-21T19:57:04;22.80;57.90
14022;DHT22;7086;48.116;11.580;2022-08-21T19:59:37;22.70;57.90
14022;DHT22;7086;48.116;11.580;2022-08-21T20:02:16;22.60;58.00
14022;DHT22;7086;48.116;11.580;2022-08-21T20:04:46;22.60;58.20
14022;DHT22;7086;48.116;11.580;2022-08-21T20:12:13;22.50;58.50
14022;DHT22;7086;48.116;11.580;2022-08-21T20:14:43;22.40;58.60
14022;DHT22;7086;48.116;11.580;2022-08-21T20:17:16;22.40;59.40
14022;DHT22;7086;48.116;11.580;2022-08-21T20:24:47;22.20;60.00
14022;DHT22;7086;48.116;11.580;2022-08-21T20:27:21;22.10;60.30
14022;DHT22;7086;48.116;11.580;2022-08-21T20:32:43;22.10;60.80
14022;DHT22;7086;48.116;11.580;2022-08-21T20:35:22;22.00;61.20
14022;DHT22;7086;48.116;11.580;2022-08-21T20:40:49;22.00;61.10
14022;DHT22;7086;48.116;11.580;2022-08-21T20:43:21;22.00;61.80
14022;DHT22;7086;48.116;11.580;2022-08-21T20:45:58;22.00;61.80
14022;DHT22;7086;48.116;11.580;2022-08-21T20:48:29;21.90;61.60
14022;DHT22;7086;48.116;11.580;2022-08-21T20:51:23;21.80;61.60
14022;DHT22;7086;48.116;11.580;2022-08-21T20:54:19;21.80;61.80
14022;DHT22;7086;48.116;11.580;2022-08-21T20:57:14;21.70;62.40
14022;DHT22;7086;48.116;11.580;2022-08-21T21:00:16;21.70;62.40
14022;DHT22;7086;48.116;11.580;2022-08-21T21:02:54;21.60;62.60
14022;DHT22;7086;48.116;11.580;2022-08-21T21:05:47;21.60;63.10
14022;DHT22;7086;48.116;11.580;2022-08-21T21:08:52;21.50;63.40
14022;DHT22;7086;48.116;11.580;2022-08-21T21:11:40;21.50;63.50
14022;DHT22;7086;48.116;11.580;2022-08-21T21:14:19;21.40;63.70
14022;DHT22;7086;48.116;11.580;2022-08-21T21:17:29;21.30;63.80
14022;DHT22;7086;48.116;11.580;2022-08-21T21:20:05;21.30;64.10
14022;DHT22;7086;48.116;11.580;2022-08-21T21:22:50;21.20;64.40
14022;DHT22;7086;48.116;11.580;2022-08-21T21:25:31;21.10;64.50
14022;DHT22;7086;48.116;11.580;2022-08-21T21:28:08;23.50;66.20
14022;DHT22;7086;48.116;11.580;2022-08-21T21:34:40;21.00;64.90
14022;DHT22;7086;48.116;11.580;2022-08-21T21:37:30;21.00;64.80
14022;DHT22;7086;48.116;11.580;2022-08-21T21:40:40;20.90;64.40
14022;DHT22;7086;48.116;11.580;2022-08-21T21:43:46;20.80;64.30
14022;DHT22;7086;48.116;11.580;2022-08-21T21:46:44;20.80;64.30
14022;DHT22;7086;48.116;11.580;2022-08-21T21:49:44;20.70;64.40
14022;DHT22;7086;48.116;11.580;2022-08-21T21:52:46;20.70;64.50
14022;DHT22;7086;48.116;11.580;2022-08-21T21:55:48;20.70;64.80
14022;DHT22;7086;48.116;11.580;2022-08-21T21:58:54;20.60;65.10
14022;DHT22;7086;48.116;11.580;2022-08-21T22:01:48;20.60;65.60
14022;DHT22;7086;48.116;11.580;2022-08-21T22:04:25;16.70;63.30
14022;DHT22;7086;48.116;11.580;2022-08-21T22:07:28;20.50;65.90
14022;DHT22;7086;48.116;11.580;2022-08-21T22:10:23;20.50;65.90
14022;DHT22;7086;48.116;11.580;2022-08-21T22:13:10;20.40;66.30
14022;DHT22;7086;48.116;11.580;2022-08-21T22:18:28;20.30;66.90
14022;DHT22;7086;48.116;11.580;2022-08-21T22:21:03;20.30;67.10
14022;DHT22;7086;48.116;11.580;2022-08-21T22:27:07;20.20;67.40
14022;DHT22;7086;48.116;11.580;2022-08-21T22:29:43;20.10;66.90
14022;DHT22;7086;48.116;11.580;2022-08-21T22:32:23;20.10;67.70
14022;DHT22;7086;48.116;11.580;2022-08-21T22:35:12;20.10;68.60
14022;DHT22;7086;48.116;11.580;2022-08-21T22:37:43;20.00;68.20
14022;DHT22;7086;48.116;11.580;2022-08-21T22:40:22;19.90;68.40
14022;DHT22;7086;48.116;11.580;2022-08-21T22:42:57;19.90;69.30
14022;DHT22;7086;48.116;11.580;2022-08-21T22:45:27;19.90;69.40
14022;DHT22;7086;48.116;11.580;2022-08-21T22:48:03;19.90;69.50
14022;DHT22;7086;48.116;11.580;2022-08-21T22:53:06;19.80;69.90
14022;DHT22;7086;48.116;11.580;2022-08-21T22:55:41;19.70;70.30
14022;DHT22;7086;48.116;11.580;2022-08-21T22:58:12;19.70;69.90
14022;DHT22;7086;48.116;11.580;2022-08-21T23:00:51;19.70;70.30
14022;DHT22;7086;48.116;11.580;2022-08-21T23:03:29;19.60;70.30
14022;DHT22;7086;48.116;11.580;2022-08-21T23:06:03;19.60;70.40
14022;DHT22;7086;48.116;11.580;2022-08-21T23:13:49;19.50;70.90
14022;DHT22;7086;48.116;11.580;2022-08-21T23:16:31;19.50;71.70
14022;DHT22;7086;48.116;11.580;2022-08-21T23:19:16;19.40;71.00
14022;DHT22;7086;48.116;11.580;2022-08-21T23:21:59;19.40;71.20
14022;DHT22;7086;48.116;11.580;2022-08-21T23:24:50;19.40;71.30
14022;DHT22;7086;48.116;11.580;2022-08-21T23:27:40;19.30;71.30
14022;DHT22;7086;48.116;11.580;2022-08-21T23:30:22;19.30;71.40
14022;DHT22;7086;48.116;11.580;2022-08-21T23:33:27;19.20;71.70
14022;DHT22;7086;48.116;11.580;2022-08-21T23:36:18;19.20;71.90
14022;DHT22;7086;48.116;11.580;2022-08-21T23:39:19;19.10;72.10
14022;DHT22;7086;48.116;11.580;2022-08-21T23:42:00;19.10;72.30
14022;DHT22;7086;48.116;11.580;2022-08-21T23:44:43;19.10;72.40
14022;DHT22;7086;48.116;11.580;2022-08-21T23:47:28;19.10;72.80
14022;DHT22;7086;48.116;11.580;2022-08-21T23:50:13;19.00;72.90
14022;DHT22;7086;48.116;11.580;2022-08-21T23:53:00;19.00;73.80
14022;DHT22;7086;48.116;11.580;2022-08-21T23:55:42;18.90;73.30
14022;DHT22;7086;48.116;11.580;2022-08-21T23:58:40;18.90;73.70
